»·PEaware :: N22G KPAE-KPDX

N22G :: KPAE-KPDX

FLIGHT INFORMATION

Flight Status: Arrived
Operator: Privately registered:
United States
More flights under this callsign
Pilot: Ryan L. (28399)
Aircraft: CESSNA 510 CITATION MUSTANG
(C510)
More flights by this aircraft type
Origin: KPAE Paine Field/Snohomish Co.
United States
Destination: KPDX Portland Intl
United States
More flights between these airports :: More routes between these airports
Route: +PAINE6 SEA HELNS6
File this flight plan on PilotEdge
Remarks:
Altitude:
(Current/Filed)
19,000ft
Speed:
(Current/Filed)
380kts
Departed: 27-Jun-20 09:50 AM
Arrived: 27-Jun-20 10:36 AM
Distance/Time
Traveled:
140nm/0:46
Distance/Time
To Go:
Arrived

Flight Plot

Page will automatically refresh every two minutes.


Map Options




Map Legend


Flown Route
Filed Route
Departure Airport
Arrival Airport
Navaid (VOR, NDB)
Fix

Horizontal Profiles

Position Reports

Time Latitude Longitude Heading Altitude Ground
Speed
27-Jun-20 09:36 47.905458 -122.276678 314 566ft 0kts
27-Jun-20 09:37 47.905458 -122.276678 314 566ft 0kts
27-Jun-20 09:38 47.905458 -122.276678 314 566ft 0kts
27-Jun-20 09:39 47.905458 -122.276678 314 566ft 0kts
27-Jun-20 09:40 47.905458 -122.276678 314 566ft 0kts
27-Jun-20 09:41 47.905458 -122.276678 314 566ft 0kts
27-Jun-20 09:42 47.905458 -122.276678 314 566ft 0kts
27-Jun-20 09:43 47.905458 -122.276678 314 566ft 0kts
27-Jun-20 09:44 47.905458 -122.276678 314 566ft 0kts
27-Jun-20 09:45 47.905458 -122.276678 314 566ft 0kts
27-Jun-20 09:46 47.906403 -122.279055 314 566ft 24kts
27-Jun-20 09:47 47.903708 -122.283280 179 566ft 37kts
27-Jun-20 09:48 47.897305 -122.283187 196 566ft 7kts
27-Jun-20 09:49 47.907447 -122.285611 358 681ft 134kts
27-Jun-20 09:50 47.957472 -122.287263 358 2018ft 219kts
27-Jun-20 09:51 48.021052 -122.289003 358 2356ft 186kts
27-Jun-20 09:52 48.073382 -122.288821 358 5175ft 194kts
27-Jun-20 09:53 48.118491 -122.286194 358 7759ft 187kts
27-Jun-20 09:54 48.140905 -122.244059 114 9938ft 236kts
27-Jun-20 09:55 48.095804 -122.208516 165 12045ft 279kts
27-Jun-20 09:56 48.034034 -122.179038 181 14205ft 298kts
27-Jun-20 09:57 47.974852 -122.191312 195 16432ft 296kts
27-Jun-20 09:58 47.908699 -122.206170 196 18861ft 297kts
27-Jun-20 09:59 47.837480 -122.222636 195 19083ft 351kts
27-Jun-20 10:00 47.775598 -122.236321 195 19070ft 363kts
27-Jun-20 10:01 47.718084 -122.248716 195 19076ft 368kts
27-Jun-20 10:02 47.657154 -122.261931 194 19071ft 373kts
27-Jun-20 10:03 47.592108 -122.275862 195 19071ft 369kts
27-Jun-20 10:04 47.510632 -122.293456 195 19069ft 371kts
27-Jun-20 10:05 47.431965 -122.309438 188 19053ft 366kts
27-Jun-20 10:06 47.366485 -122.309667 186 19073ft 378kts
27-Jun-20 10:07 47.296416 -122.309595 186 19068ft 370kts
27-Jun-20 10:08 47.227250 -122.309677 186 19071ft 379kts
27-Jun-20 10:09 47.136300 -122.309555 186 19067ft 367kts
27-Jun-20 10:10 47.041309 -122.309831 186 19069ft 363kts
27-Jun-20 10:11 46.957146 -122.309687 186 19074ft 363kts
27-Jun-20 10:12 46.874911 -122.309758 186 19078ft 365kts
27-Jun-20 10:13 46.801428 -122.309778 186 19085ft 380kts
27-Jun-20 10:14 46.723570 -122.309742 186 19080ft 381kts
27-Jun-20 10:15 46.649002 -122.309733 185 17495ft 377kts
27-Jun-20 10:16 46.570061 -122.309740 185 16207ft 369kts
27-Jun-20 10:17 46.487336 -122.309705 185 15073ft 358kts
27-Jun-20 10:18 46.410483 -122.309663 185 14262ft 351kts
27-Jun-20 10:19 46.333501 -122.309685 185 13646ft 351kts
27-Jun-20 10:20 46.248828 -122.313771 203 12984ft 342kts
27-Jun-20 10:21 46.153051 -122.367567 206 12249ft 338kts
27-Jun-20 10:22 46.061203 -122.418630 206 12014ft 328kts
27-Jun-20 10:23 45.971100 -122.468569 206 12000ft 325kts
27-Jun-20 10:24 45.879962 -122.518891 206 11987ft 325kts
27-Jun-20 10:25 45.810818 -122.556776 207 11729ft 283kts
27-Jun-20 10:26 45.764083 -122.587168 234 9412ft 242kts
27-Jun-20 10:27 45.764802 -122.634587 299 7327ft 224kts
27-Jun-20 10:28 45.786378 -122.711672 287 3744ft 228kts
27-Jun-20 10:29 45.775072 -122.771320 166 3492ft 174kts
27-Jun-20 10:30 45.724214 -122.768931 191 3532ft 256kts
27-Jun-20 10:31 45.649626 -122.752375 112 1998ft 234kts
27-Jun-20 10:32 45.623488 -122.669576 117 1276ft 152kts
27-Jun-20 10:33 45.607136 -122.627176 118 522ft 109kts
27-Jun-20 10:34 45.592393 -122.589521 118 33ft 83kts
27-Jun-20 10:35 45.588076 -122.582410 203 29ft 16kts
27-Jun-20 10:37 45.587004 -122.582118 120 27ft 0kts
27-Jun-20 10:38 45.587004 -122.582118 120 27ft 0kts
27-Jun-20 10:39 45.587004 -122.582118 120 27ft 0kts

Navigation Log

Ident Type
Flight plan parsing failed, navigation log unavailable